Time;durP1;ratioP1;P1;durP2;ratioP2;P2;SDS_P1;SDS_P2;PMS_P1;PMS_P2;Temp;Humidity;BMP_temperature;BMP_pressure;BME280_temperature;BME280_humidity;BME280_pressure;Samples;Min_cycle;Max_cycle;Signal;HPM_P1;HPM_P2
2021/06/27 00:01:11;;;;;;;9.15;8.32;;;;;;;17.73;74.92;101218.56;4992779;28;20061;-85
2021/06/27 00:03:40;;;;;;;10.05;9.13;;;;;;;17.68;75.07;101205.47;4982601;28;20658;-86
2021/06/27 00:06:09;;;;;;;12.88;9.27;;;;;;;17.65;75.12;101210.84;4996454;28;20081;-86
2021/06/27 00:08:38;;;;;;;8.93;8.13;;;;;;;17.60;75.48;101207.44;4978273;28;20054;-86
2021/06/27 00:11:10;;;;;;;9.35;8.45;;;;;;;17.53;75.35;101214.72;4985931;28;20509;-86
2021/06/27 00:13:45;;;;;;;9.35;8.48;;;;;;;17.46;75.74;101216.66;4995622;28;20045;-86
2021/06/27 00:16:13;;;;;;;10.65;8.90;;;;;;;17.41;75.82;101215.06;5008200;28;20046;-86
2021/06/27 00:18:46;;;;;;;8.95;8.07;;;;;;;17.34;76.22;101211.75;5007553;28;20353;-85
2021/06/27 00:21:15;;;;;;;9.18;8.27;;;;;;;17.28;76.43;101206.63;4994032;28;20492;-85
2021/06/27 00:23:47;;;;;;;9.23;8.32;;;;;;;17.24;76.32;101210.25;4975744;28;20042;-86
2021/06/27 00:26:17;;;;;;;9.32;7.53;;;;;;;17.19;76.71;101203.31;4980976;28;20065;-86
2021/06/27 00:28:52;;;;;;;8.55;7.65;;;;;;;17.15;76.91;101200.78;4996118;28;20071;-87
2021/06/27 00:31:22;;;;;;;7.53;6.82;;;;;;;17.09;77.15;101196.56;4994817;28;20042;-85
2021/06/27 00:33:49;;;;;;;9.55;7.15;;;;;;;17.05;77.24;101204.59;4983118;28;20061;-85
2021/06/27 00:36:18;;;;;;;7.72;7.05;;;;;;;17.01;77.31;101198.53;4978145;28;20042;-85
2021/06/27 00:38:48;;;;;;;9.43;8.48;;;;;;;16.97;77.33;101204.81;4992424;28;20050;-88
2021/06/27 00:41:18;;;;;;;9.20;8.00;;;;;;;16.91;77.72;101204.97;4988517;28;20054;-85
2021/06/27 00:43:46;;;;;;;9.15;8.25;;;;;;;16.93;77.77;101197.88;4990716;28;20128;-85
2021/06/27 00:46:16;;;;;;;9.05;8.15;;;;;;;16.91;77.74;101204.97;4990897;28;20042;-87
2021/06/27 00:48:45;;;;;;;7.88;7.13;;;;;;;16.86;78.03;101203.28;5003403;28;20042;-86
2021/06/27 00:51:12;;;;;;;7.72;6.93;;;;;;;16.83;77.68;101205.13;4987689;28;20070;-85
2021/06/27 00:53:40;;;;;;;8.15;6.75;;;;;;;16.80;77.82;101211.38;4970672;28;20046;-86
2021/06/27 00:56:07;;;;;;;10.50;6.53;;;;;;;16.79;77.76;101214.06;4989232;28;20166;-86
2021/06/27 00:58:37;;;;;;;8.35;7.55;;;;;;;16.76;78.08;101217.66;5000544;28;20129;-86
2021/06/27 01:01:09;;;;;;;8.55;7.22;;;;;;;16.75;77.85;101222.97;4985586;28;20038;-86
2021/06/27 01:03:36;;;;;;;8.18;7.03;;;;;;;16.70;78.19;101223.97;4975633;28;20056;-85
2021/06/27 01:06:04;;;;;;;8.07;7.30;;;;;;;16.65;78.56;101220.56;4999801;28;20901;-84
2021/06/27 01:08:32;;;;;;;7.80;7.10;;;;;;;16.62;78.44;101212.72;5000294;28;20141;-84
2021/06/27 01:11:00;;;;;;;8.10;6.93;;;;;;;16.61;78.69;101220.66;4982425;28;20580;-84
2021/06/27 01:13:28;;;;;;;8.52;7.78;;;;;;;16.58;78.70;101221.63;5000813;28;20033;-85
2021/06/27 01:15:57;;;;;;;7.88;7.18;;;;;;;16.57;78.92;101221.66;4988992;28;20076;-84
2021/06/27 01:18:25;;;;;;;7.72;7.00;;;;;;;16.55;78.74;101219.06;4978879;28;20046;-85
2021/06/27 01:20:53;;;;;;;7.68;6.95;;;;;;;16.50;79.37;101220.94;4989437;28;20422;-86
2021/06/27 01:23:21;;;;;;;7.93;7.15;;;;;;;16.49;79.13;101219.19;4984218;28;20047;-85
2021/06/27 01:25:53;;;;;;;9.82;7.00;;;;;;;16.47;79.22;101218.41;4972635;28;20042;-85
2021/06/27 01:28:20;;;;;;;6.95;6.32;;;;;;;16.41;79.22;101219.38;4966260;28;20061;-85
2021/06/27 01:30:47;;;;;;;8.77;6.85;;;;;;;16.36;79.46;101219.53;4968648;28;20043;-85
2021/06/27 01:33:20;;;;;;;6.30;5.70;;;;;;;16.35;79.64;101219.56;4987001;28;20054;-84
2021/06/27 01:35:50;;;;;;;7.50;6.80;;;;;;;16.31;80.01;101213.47;4970775;28;20046;-85
2021/06/27 01:38:21;;;;;;;7.75;6.95;;;;;;;16.30;80.15;101218.81;4969321;28;20050;-87
2021/06/27 01:40:49;;;;;;;6.15;5.65;;;;;;;16.25;80.14;101216.25;4971460;28;20048;-88
2021/06/27 01:43:24;;;;;;;7.75;7.05;;;;;;;16.23;80.35;101212.78;4972472;28;20034;-85
2021/06/27 01:45:58;;;;;;;8.13;6.72;;;;;;;16.19;80.69;101216.38;5004369;28;20046;-85
2021/06/27 01:48:32;;;;;;;10.50;7.47;;;;;;;16.17;81.00;101212.94;4970735;28;20104;-84
2021/06/27 01:51:02;;;;;;;6.82;6.15;;;;;;;16.18;80.83;101206.75;4965012;28;20675;-87
2021/06/27 01:53:34;;;;;;;9.15;7.68;;;;;;;16.14;81.16;101218.28;4988255;28;20049;-85
2021/06/27 01:56:06;;;;;;;9.77;8.18;;;;;;;16.11;81.40;101206.00;4987881;28;20469;-84
2021/06/27 01:58:50;;;;;;;10.57;8.80;;;;;;;16.11;81.40;101213.06;4982730;28;20057;-86
2021/06/27 02:01:35;;;;;;;8.55;7.72;;;;;;;16.16;81.19;101219.13;4965957;28;20240;-86
2021/06/27 02:04:07;;;;;;;11.90;7.95;;;;;;;16.14;81.13;101208.59;4987218;28;20605;-85
2021/06/27 02:06:43;;;;;;;10.13;8.77;;;;;;;16.11;81.41;101207.78;4971747;28;20046;-86
2021/06/27 02:09:14;;;;;;;11.85;9.02;;;;;;;16.10;81.29;101208.69;4986118;28;20054;-86
2021/06/27 02:11:41;;;;;;;17.13;10.85;;;;;;;16.06;81.36;101199.97;4971608;28;20082;-87
2021/06/27 02:14:10;;;;;;;14.25;11.20;;;;;;;16.02;81.44;101196.53;4968842;28;20814;-87
2021/06/27 02:16:38;;;;;;;13.77;10.70;;;;;;;15.97;81.94;101201.06;4969101;28;20521;-85
2021/06/27 02:19:06;;;;;;;16.50;12.93;;;;;;;15.94;82.07;101194.97;4987129;28;20081;-87
2021/06/27 02:21:37;;;;;;;16.63;13.05;;;;;;;15.92;81.98;101195.00;4988231;28;20097;-85
2021/06/27 02:24:06;;;;;;;15.88;12.30;;;;;;;15.90;81.97;101193.31;4985965;28;20512;-87
2021/06/27 02:26:44;;;;;;;17.40;13.15;;;;;;;15.87;82.66;101196.88;4985773;28;20045;-86
2021/06/27 02:29:11;;;;;;;16.80;11.10;;;;;;;15.84;82.30;101197.81;4985200;28;20470;-85
2021/06/27 02:31:47;;;;;;;15.77;12.55;;;;;;;15.81;82.46;101194.38;4964538;28;20520;-85
2021/06/27 02:34:25;;;;;;;13.95;10.38;;;;;;;15.76;82.21;101189.19;4982784;28;20133;-87
2021/06/27 02:36:51;;;;;;;14.55;12.27;;;;;;;15.71;82.64;101185.78;4986157;28;20716;-85
2021/06/27 02:39:18;;;;;;;17.60;12.82;;;;;;;15.67;82.80;101186.72;4973495;28;20089;-84
2021/06/27 02:41:45;;;;;;;14.45;11.00;;;;;;;15.63;82.95;101187.69;5003705;28;20046;-83
2021/06/27 02:44:11;;;;;;;16.38;11.63;;;;;;;15.61;83.12;101186.88;4987042;28;20132;-86
2021/06/27 02:46:39;;;;;;;16.65;12.13;;;;;;;15.59;83.18;101188.66;4959769;28;20066;-85
2021/06/27 02:49:06;;;;;;;13.27;10.77;;;;;;;15.59;82.93;101186.00;4986107;28;20142;-85
2021/06/27 02:51:35;;;;;;;16.17;12.02;;;;;;;15.62;82.95;101191.22;5002523;28;20120;-85
2021/06/27 02:54:07;;;;;;;15.73;11.82;;;;;;;15.65;82.73;101191.16;4971423;28;20117;-86
2021/06/27 02:56:34;;;;;;;15.82;11.10;;;;;;;15.64;82.65;101190.28;5004396;28;20066;-85
2021/06/27 02:59:01;;;;;;;15.88;10.38;;;;;;;15.64;82.89;101192.06;4987641;28;20138;-84
2021/06/27 03:01:27;;;;;;;13.80;9.98;;;;;;;15.59;82.77;101192.19;4971713;28;20043;-87
2021/06/27 03:03:54;;;;;;;16.85;10.77;;;;;;;15.56;82.91;101194.88;4977249;28;20124;-85
2021/06/27 03:06:21;;;;;;;16.02;11.77;;;;;;;15.54;82.96;101188.78;4989522;28;20050;-84
2021/06/27 03:08:49;;;;;;;16.30;11.55;;;;;;;15.51;83.37;101189.72;4990857;28;20113;-85
2021/06/27 03:11:17;;;;;;;17.80;10.50;;;;;;;15.47;83.46;101182.72;4984545;28;20497;-85
2021/06/27 03:13:44;;;;;;;11.95;10.18;;;;;;;15.45;83.77;101183.66;4976355;28;20054;-84
2021/06/27 03:16:12;;;;;;;12.00;10.23;;;;;;;15.45;83.63;101184.56;4975272;28;20057;-87
2021/06/27 03:18:39;;;;;;;14.25;9.75;;;;;;;15.45;84.00;101181.91;4999078;28;20043;-85
2021/06/27 03:21:06;;;;;;;11.23;8.88;;;;;;;15.44;83.86;101184.59;4985172;28;20253;-86
2021/06/27 03:23:34;;;;;;;11.55;9.13;;;;;;;15.42;84.08;101179.31;4974923;28;20058;-88
2021/06/27 03:26:00;;;;;;;14.73;10.55;;;;;;;15.42;84.31;101184.59;4976496;28;20049;-85
2021/06/27 03:28:32;;;;;;;13.43;9.88;;;;;;;15.41;84.52;101185.50;4992375;28;20066;-85
2021/06/27 03:31:00;;;;;;;11.35;9.15;;;;;;;15.41;84.40;101185.50;4975075;28;20043;-85
2021/06/27 03:33:27;;;;;;;12.00;8.82;;;;;;;15.42;84.20;101189.00;5010654;28;20058;-86
2021/06/27 03:35:55;;;;;;;10.48;8.00;;;;;;;15.41;84.33;101185.50;4984641;28;20047;-86
2021/06/27 03:38:26;;;;;;;9.45;7.72;;;;;;;15.41;84.67;101177.59;4965382;28;20129;-86
2021/06/27 03:40:54;;;;;;;14.40;8.48;;;;;;;15.41;84.52;101179.34;4963983;28;20546;-85
2021/06/27 03:43:22;;;;;;;11.00;8.77;;;;;;;15.41;84.22;101176.72;4949500;28;20802;-85
2021/06/27 03:45:49;;;;;;;11.20;9.48;;;;;;;15.42;84.55;101179.31;4968510;28;20057;-86
2021/06/27 03:48:16;;;;;;;10.10;8.35;;;;;;;15.42;84.42;101173.19;4966333;28;20047;-85
2021/06/27 03:50:46;;;;;;;10.48;9.10;;;;;;;15.42;84.61;101174.03;4932732;28;20466;-86
2021/06/27 03:53:14;;;;;;;9.95;8.80;;;;;;;15.43;84.50;101170.50;4970015;28;20132;-86
2021/06/27 03:55:41;;;;;;;9.02;8.13;;;;;;;15.45;84.67;101170.47;4955812;28;20055;-85
2021/06/27 03:58:09;;;;;;;9.57;8.38;;;;;;;15.48;84.61;101170.41;4969082;28;20050;-85
2021/06/27 04:00:36;;;;;;;11.00;8.90;;;;;;;15.52;85.16;101169.44;4953801;28;20046;-86
2021/06/27 04:03:07;;;;;;;10.35;8.65;;;;;;;15.57;84.99;101179.94;4972780;28;20129;-86
2021/06/27 04:05:34;;;;;;;11.18;9.40;;;;;;;15.61;85.25;101182.44;4972106;28;20157;-85
2021/06/27 04:08:03;;;;;;;12.85;9.23;;;;;;;15.63;84.86;101172.75;4982794;28;20042;-86
2021/06/27 04:10:32;;;;;;;8.73;7.93;;;;;;;15.67;84.87;101178.78;4952149;28;20051;-85
2021/06/27 04:13:06;;;;;;;10.07;8.18;;;;;;;15.70;84.85;101176.97;4970816;28;20059;-85
2021/06/27 04:15:35;;;;;;;10.27;7.93;;;;;;;15.76;84.53;101167.16;4956722;28;20057;-86
2021/06/27 04:18:02;;;;;;;11.98;8.10;;;;;;;15.81;84.36;101167.97;4965978;28;20059;-85
2021/06/27 04:20:29;;;;;;;9.13;7.45;;;;;;;15.87;83.91;101178.41;4965184;28;20047;-85
2021/06/27 04:23:00;;;;;;;8.40;7.03;;;;;;;15.92;83.96;101176.53;4963095;28;20126;-85
2021/06/27 04:25:27;;;;;;;9.60;7.95;;;;;;;15.98;83.86;101172.88;4951219;28;20049;-85
2021/06/27 04:27:54;;;;;;;10.85;8.23;;;;;;;16.05;83.37;101177.13;4994177;28;20046;-86
2021/06/27 04:30:22;;;;;;;7.65;6.85;;;;;;;16.12;83.12;101178.69;4952160;28;20051;-85
2021/06/27 04:32:48;;;;;;;8.85;7.25;;;;;;;16.17;82.76;101168.88;4973609;28;20056;-86
2021/06/27 04:35:15;;;;;;;8.35;7.55;;;;;;;16.25;82.50;101166.06;4956070;28;20520;-86
2021/06/27 04:37:43;;;;;;;11.38;8.77;;;;;;;16.30;82.28;101172.09;4970963;28;20043;-86
2021/06/27 04:40:10;;;;;;;10.40;7.65;;;;;;;16.38;81.83;101169.28;4971779;28;20138;-86
2021/06/27 04:42:37;;;;;;;10.65;7.82;;;;;;;16.44;81.41;101168.25;4971973;28;20042;-86
2021/06/27 04:45:07;;;;;;;9.05;8.15;;;;;;;16.49;80.80;101169.88;4964616;28;20051;-86
2021/06/27 04:47:35;;;;;;;8.13;7.40;;;;;;;16.55;80.52;101171.50;4966376;28;20051;-86
2021/06/27 04:50:07;;;;;;;10.70;8.48;;;;;;;16.59;79.91;101167.84;4970333;28;20039;-85
2021/06/27 04:52:36;;;;;;;9.32;7.60;;;;;;;16.65;79.84;101165.06;4962010;28;20047;-86
2021/06/27 04:55:14;;;;;;;9.20;7.88;;;;;;;16.72;79.47;101171.03;4973663;28;20046;-86
2021/06/27 04:57:40;;;;;;;7.95;7.15;;;;;;;16.79;79.29;101166.47;4955078;28;20726;-86
2021/06/27 05:00:09;;;;;;;9.55;7.60;;;;;;;16.88;78.92;101168.84;4951971;28;20047;-86
2021/06/27 05:02:35;;;;;;;8.02;7.07;;;;;;;16.97;78.61;101166.03;4981634;28;20042;-85
2021/06/27 05:05:05;;;;;;;11.05;8.23;;;;;;;17.02;78.60;101169.38;4954207;28;20123;-86
2021/06/27 05:07:32;;;;;;;9.40;7.40;;;;;;;17.07;78.18;101168.41;4951012;28;20524;-86
2021/06/27 05:10:01;;;;;;;7.60;6.68;;;;;;;17.11;78.05;101164.75;4965524;28;20073;-86
2021/06/27 05:12:29;;;;;;;8.18;7.00;;;;;;;17.11;78.20;101162.13;4975183;28;20493;-86
2021/06/27 05:14:58;;;;;;;9.25;7.30;;;;;;;17.10;78.23;101163.88;4950076;28;20051;-85
2021/06/27 05:17:27;;;;;;;7.55;6.55;;;;;;;17.13;77.93;101157.63;4968427;28;20093;-86
2021/06/27 05:19:58;;;;;;;7.97;7.28;;;;;;;17.17;77.86;101157.50;4969826;28;20046;-87
2021/06/27 05:22:25;;;;;;;7.60;6.90;;;;;;;17.25;77.80;101156.41;4977588;28;20477;-87
2021/06/27 05:24:53;;;;;;;8.38;7.38;;;;;;;17.31;77.25;101154.47;4970738;28;20042;-86
2021/06/27 05:27:24;;;;;;;10.57;6.78;;;;;;;17.35;77.03;101150.81;4954575;28;20054;-87
2021/06/27 05:29:51;;;;;;;8.48;5.45;;;;;;;17.42;76.81;101148.00;4970880;28;20281;-86
2021/06/27 05:32:20;;;;;;;9.52;6.35;;;;;;;17.46;76.35;101147.00;4949271;28;20043;-85
2021/06/27 05:34:47;;;;;;;8.60;6.60;;;;;;;17.52;76.09;101138.84;4952961;28;20094;-85
2021/06/27 05:37:14;;;;;;;6.07;5.57;;;;;;;17.59;75.73;101137.75;4968712;28;20054;-85
2021/06/27 05:39:41;;;;;;;5.80;5.20;;;;;;;17.65;75.33;101132.28;4968835;28;20125;-87
2021/06/27 05:42:08;;;;;;;5.63;4.82;;;;;;;17.71;75.01;101136.53;4950843;28;20051;-87
2021/06/27 05:44:38;;;;;;;6.25;5.65;;;;;;;17.76;74.58;101133.75;4971286;28;20053;-87
2021/06/27 05:47:05;;;;;;;8.30;5.45;;;;;;;17.80;74.69;101128.28;4951413;28;20042;-86
2021/06/27 05:49:32;;;;;;;6.05;5.55;;;;;;;17.85;74.50;101129.00;4968549;28;20105;-86
2021/06/27 05:51:59;;;;;;;5.93;5.32;;;;;;;17.90;73.50;101136.81;4955083;28;20531;-87
2021/06/27 05:54:28;;;;;;;6.85;5.13;;;;;;;17.95;72.33;101134.03;4952029;28;20051;-87
2021/06/27 05:56:54;;;;;;;5.57;4.30;;;;;;;17.99;71.87;101133.03;4966635;28;20057;-87
2021/06/27 05:59:24;;;;;;;5.25;4.68;;;;;;;18.06;69.81;101125.78;4978886;28;20054;-85
2021/06/27 06:01:51;;;;;;;4.70;4.30;;;;;;;18.10;70.05;101124.75;4970302;28;20086;-85
2021/06/27 06:04:20;;;;;;;3.75;3.45;;;;;;;18.13;70.00;101119.34;4937795;28;20048;-86
2021/06/27 06:06:48;;;;;;;3.80;3.50;;;;;;;18.18;69.86;101126.19;4958384;28;20051;-86
2021/06/27 06:09:15;;;;;;;4.57;4.20;;;;;;;18.27;69.13;101122.38;4968952;28;20058;-85
2021/06/27 06:11:48;;;;;;;5.20;3.92;;;;;;;18.33;68.94;101122.19;4959929;28;20101;-86
2021/06/27 06:14:15;;;;;;;5.78;4.78;;;;;;;18.38;68.60;101122.00;4959821;28;20050;-85
2021/06/27 06:16:45;;;;;;;4.75;4.28;;;;;;;18.44;68.58;101116.50;4967956;28;20047;-84
2021/06/27 06:19:18;;;;;;;4.35;3.95;;;;;;;18.52;68.13;101114.47;4985031;28;20065;-85
2021/06/27 06:21:47;;;;;;;4.30;3.73;;;;;;;18.57;68.27;101118.75;4968498;28;20047;-84
2021/06/27 06:24:19;;;;;;;4.70;4.25;;;;;;;18.59;67.96;101117.78;4985357;28;20337;-85
2021/06/27 06:26:49;;;;;;;4.75;4.45;;;;;;;18.65;67.84;101125.50;4985097;28;20118;-84
2021/06/27 06:29:17;;;;;;;4.10;3.80;;;;;;;18.73;67.30;101121.72;4942531;28;20059;-85
2021/06/27 06:31:44;;;;;;;4.82;4.38;;;;;;;18.77;66.90;101120.69;4967515;28;20047;-87
2021/06/27 06:34:13;;;;;;;4.80;4.40;;;;;;;18.83;65.86;101123.13;4961073;28;20053;-86
2021/06/27 06:36:43;;;;;;;6.35;4.82;;;;;;;18.87;65.87;101124.75;4970386;28;20083;-84
2021/06/27 06:39:10;;;;;;;5.05;4.55;;;;;;;18.93;66.22;101126.31;4955646;28;20543;-85
2021/06/27 06:41:37;;;;;;;5.90;3.90;;;;;;;19.02;65.80;101131.31;4992461;28;20043;-87
2021/06/27 06:44:05;;;;;;;4.75;4.35;;;;;;;19.11;65.50;101120.38;4990861;28;20054;-86
2021/06/27 06:46:37;;;;;;;3.95;3.65;;;;;;;19.17;65.37;101130.72;4995994;28;20125;-85
2021/06/27 06:49:04;;;;;;;4.20;3.83;;;;;;;19.19;65.47;101133.34;4976680;28;20057;-83
2021/06/27 06:51:35;;;;;;;4.88;4.47;;;;;;;19.29;65.53;101128.53;4995049;28;20042;-83
2021/06/27 06:54:02;;;;;;;3.80;3.50;;;;;;;19.36;65.33;101130.06;4980372;28;20200;-84
2021/06/27 06:56:29;;;;;;;3.83;3.63;;;;;;;19.43;65.41;101130.69;4989787;28;20611;-83
2021/06/27 06:58:58;;;;;;;4.75;4.35;;;;;;;19.53;65.18;101129.41;4990698;28;20183;-86
2021/06/27 07:01:27;;;;;;;3.92;3.13;;;;;;;19.61;64.85;101132.63;4967087;28;20056;-85
2021/06/27 07:03:55;;;;;;;5.78;4.50;;;;;;;19.70;64.68;101130.50;4976230;28;20158;-86
2021/06/27 07:06:30;;;;;;;4.03;3.72;;;;;;;19.75;64.22;101131.19;4972203;28;20039;-85
2021/06/27 07:08:57;;;;;;;3.90;3.63;;;;;;;19.82;64.05;101128.28;4974588;28;20513;-85
2021/06/27 07:11:24;;;;;;;4.38;3.97;;;;;;;19.92;63.90;101127.91;4973139;28;20038;-84
2021/06/27 07:14:01;;;;;;;;;;;;;;;;;;;;;
2021/06/27 07:16:29;;;;;;;4.47;4.07;;;;;;;20.09;63.12;101128.09;4969364;28;20035;-86
2021/06/27 07:18:58;;;;;;;3.97;3.67;;;;;;;20.12;62.79;101127.94;4974874;28;20129;-86
2021/06/27 07:21:28;;;;;;;3.63;3.38;;;;;;;20.24;61.67;101129.22;4973140;28;20053;-86
2021/06/27 07:23:57;;;;;;;3.78;3.42;;;;;;;20.39;61.59;101134.81;4955424;28;20073;-85
2021/06/27 07:26:26;;;;;;;3.60;3.28;;;;;;;20.63;60.42;101131.13;4973179;28;20065;-86
2021/06/27 07:28:54;;;;;;;3.42;3.13;;;;;;;20.90;58.76;101128.22;4940903;28;20050;-88
2021/06/27 07:31:21;;;;;;;3.53;3.28;;;;;;;21.29;57.62;101124.66;4990330;28;20520;-85
2021/06/27 07:33:49;;;;;;;4.40;3.50;;;;;;;21.86;56.07;101120.25;4973150;28;20070;-86
2021/06/27 07:36:16;;;;;;;3.67;3.38;;;;;;;22.48;53.90;101118.06;4974689;28;20925;-87
2021/06/27 07:38:43;;;;;;;6.05;5.45;;;;;;;23.08;51.16;101119.38;4954295;28;20069;-87
2021/06/27 07:41:12;;;;;;;4.13;3.72;;;;;;;23.70;51.20;101119.56;4971937;28;20134;-87
2021/06/27 07:43:42;;;;;;;3.95;3.67;;;;;;;24.33;49.24;101124.91;4973757;28;20100;-87
2021/06/27 07:46:12;;;;;;;4.30;3.90;;;;;;;24.84;47.48;101120.03;4971722;28;20050;-87
2021/06/27 07:48:39;;;;;;;3.90;3.60;;;;;;;25.23;45.62;101113.13;4972909;28;20053;-86
2021/06/27 07:51:10;;;;;;;4.88;4.40;;;;;;;25.59;45.93;101116.25;4951856;28;20370;-86
2021/06/27 07:53:37;;;;;;;4.43;4.10;;;;;;;25.93;44.85;101114.91;4984997;28;20043;-89
2021/06/27 07:56:05;;;;;;;4.60;3.83;;;;;;;26.38;44.68;101117.28;4974497;28;20054;-91
2021/06/27 07:58:32;;;;;;;3.47;3.25;;;;;;;26.95;43.76;101117.00;4957032;28;20706;-87
2021/06/27 08:00:59;;;;;;;4.43;4.10;;;;;;;27.46;41.74;101108.03;4958087;28;20042;-85
2021/06/27 08:03:26;;;;;;;3.97;3.10;;;;;;;27.83;41.35;101106.13;4953200;28;20051;-86
2021/06/27 08:05:52;;;;;;;3.20;3.08;;;;;;;28.28;40.97;101110.00;4973161;28;20057;-86
2021/06/27 08:08:19;;;;;;;3.70;3.50;;;;;;;28.63;40.26;101112.69;4972268;28;20116;-85
2021/06/27 08:10:47;;;;;;;4.55;3.72;;;;;;;29.03;39.11;101114.06;4970606;28;20100;-87
2021/06/27 08:13:16;;;;;;;3.45;3.17;;;;;;;29.41;38.56;101110.13;4972343;28;20039;-86
2021/06/27 08:15:43;;;;;;;3.53;3.40;;;;;;;29.72;37.75;101114.84;4955911;28;20038;-87
2021/06/27 08:18:10;;;;;;;3.60;3.30;;;;;;;29.82;36.92;101119.34;4972120;28;20054;-86
2021/06/27 08:20:37;;;;;;;3.30;3.10;;;;;;;29.98;36.38;101116.25;4970149;28;20506;-88
2021/06/27 08:23:05;;;;;;;5.35;4.95;;;;;;;30.14;36.54;101114.94;4975380;28;20053;-87
2021/06/27 08:25:32;;;;;;;4.93;3.40;;;;;;;30.40;35.98;101112.72;4959241;28;20054;-84
2021/06/27 08:28:01;;;;;;;3.50;3.30;;;;;;;30.78;34.92;101124.78;4961685;28;20399;-86
2021/06/27 08:30:28;;;;;;;4.25;3.40;;;;;;;31.06;34.00;101116.97;4995040;28;20077;-88
2021/06/27 08:32:56;;;;;;;3.30;3.00;;;;;;;31.15;33.26;101115.31;4986885;28;20039;-88
2021/06/27 08:38:08;;;;;;;3.28;3.08;;;;;;;31.29;31.97;101109.50;4982638;28;20046;-86
2021/06/27 08:40:40;;;;;;;5.32;4.90;;;;;;;31.51;31.74;101104.84;4978656;28;20049;-85
2021/06/27 08:43:14;;;;;;;3.50;3.08;;;;;;;31.96;30.82;101101.63;4972358;28;20050;-87
2021/06/27 08:45:54;;;;;;;4.68;4.32;;;;;;;32.45;29.36;101114.28;4972538;28;20077;-90
2021/06/27 08:48:25;;;;;;;3.70;3.50;;;;;;;32.69;29.31;101111.09;4996125;28;20061;-86
2021/06/27 08:50:55;;;;;;;2.70;2.50;;;;;;;32.93;28.23;101107.91;4989864;28;20057;-86
2021/06/27 08:53:23;;;;;;;2.28;2.17;;;;;;;32.74;27.82;101108.81;4973965;28;20485;-87
2021/06/27 08:56:04;;;;;;;2.67;2.47;;;;;;;32.45;27.94;101115.16;4976759;28;20118;-88
2021/06/27 08:58:43;;;;;;;2.50;2.40;;;;;;;31.80;28.08;101117.59;4995255;28;20077;-86
2021/06/27 09:01:21;;;;;;;2.72;2.50;;;;;;;31.95;28.28;101118.03;4977917;28;20321;-85
2021/06/27 09:03:51;;;;;;;2.60;2.50;;;;;;;32.37;27.83;101120.44;4960584;28;20129;-87
2021/06/27 09:06:33;;;;;;;2.92;2.83;;;;;;;32.36;27.63;101135.00;4975812;28;20076;-87
2021/06/27 09:09:21;;;;;;;3.03;2.90;;;;;;;32.36;28.10;101129.56;4957734;28;20054;-87
2021/06/27 09:12:07;;;;;;;2.47;2.38;;;;;;;32.68;27.29;101125.63;4974617;28;20069;-87
2021/06/27 09:14:48;;;;;;;3.00;2.63;;;;;;;33.29;26.62;101123.47;4976908;28;20046;-86
2021/06/27 09:17:27;;;;;;;2.80;2.63;;;;;;;33.90;25.91;101124.63;4973874;28;20113;-86
2021/06/27 09:19:57;;;;;;;3.38;3.17;;;;;;;33.76;26.37;101119.72;4959929;28;20137;-87
2021/06/27 09:22:28;;;;;;;2.70;2.60;;;;;;;33.07;27.56;101121.97;4989234;28;20097;-84
2021/06/27 09:25:17;;;;;;;3.17;2.97;;;;;;;32.35;28.31;101127.88;4978559;28;20102;-87
2021/06/27 09:30:27;;;;;;;;;;;;;;;31.44;29.03;101117.22;4973355;28;20047;-86
2021/06/27 09:33:05;;;;;;;3.47;3.28;;;;;;;31.15;29.46;101124.25;4972493;28;19921;-85
2021/06/27 09:36:07;;;;;;;3.80;3.50;;;;;;;30.72;30.10;101132.59;4975723;28;20038;-84
2021/06/27 09:38:48;;;;;;;3.08;2.88;;;;;;;30.68;30.49;101118.47;4976336;28;20077;-85
2021/06/27 09:41:32;;;;;;;2.80;2.70;;;;;;;31.11;29.73;101117.41;4994247;28;20069;-85
2021/06/27 09:44:08;;;;;;;3.13;2.92;;;;;;;31.41;28.83;101112.94;4997158;28;20043;-85
2021/06/27 09:46:42;;;;;;;2.47;2.38;;;;;;;31.75;28.46;101107.19;4970550;28;20073;-83
2021/06/27 09:49:14;;;;;;;3.40;3.20;;;;;;;32.35;27.67;101111.59;4972151;28;20054;-87
2021/06/27 09:51:52;;;;;;;3.63;3.42;;;;;;;32.95;26.88;101100.47;4970428;28;20050;-85
2021/06/27 09:54:27;;;;;;;3.55;3.33;;;;;;;33.16;26.46;101104.78;4996924;28;20093;-86
2021/06/27 09:56:57;;;;;;;3.00;2.80;;;;;;;33.19;25.94;101107.19;4984976;28;20038;-86
2021/06/27 09:59:40;;;;;;;2.92;2.83;;;;;;;33.21;25.93;101105.19;4976974;28;20130;-86
2021/06/27 10:02:11;;;;;;;3.00;2.80;;;;;;;33.66;25.61;101103.50;4998090;28;20100;-85
2021/06/27 10:04:41;;;;;;;3.13;2.83;;;;;;;34.50;24.04;101092.34;4981669;28;20446;-86
2021/06/27 10:07:11;;;;;;;3.20;2.72;;;;;;;35.36;23.86;101090.56;4977465;28;20911;-85
2021/06/27 10:09:44;;;;;;;2.40;2.30;;;;;;;36.32;22.81;101097.28;4982951;28;20062;-85
2021/06/27 10:12:19;;;;;;;3.00;2.80;;;;;;;37.28;22.19;101094.59;4984205;28;20077;-86
2021/06/27 10:14:55;;;;;;;3.17;2.97;;;;;;;38.08;21.18;101087.06;4985688;28;20072;-84
2021/06/27 10:20:33;;;;;;;2.67;2.58;;;;;;;38.92;18.85;101088.78;4998680;28;20038;-83
2021/06/27 10:23:00;;;;;;;2.65;2.55;;;;;;;38.57;19.33;101077.53;4999213;28;20452;-87
2021/06/27 10:25:28;;;;;;;2.08;2.03;;;;;;;38.87;19.70;101081.13;4979617;28;20043;-85
2021/06/27 10:27:58;;;;;;;2.75;2.65;;;;;;;39.12;18.82;101080.81;4975664;28;20060;-85
2021/06/27 10:30:30;;;;;;;2.67;2.47;;;;;;;39.26;18.84;101079.13;4961340;28;20358;-85
2021/06/27 10:33:00;;;;;;;2.88;2.70;;;;;;;39.34;18.56;101076.25;4965233;28;20076;-85
2021/06/27 10:35:28;;;;;;;2.42;2.20;;;;;;;39.51;18.28;101078.75;4979637;28;20085;-85
2021/06/27 10:37:56;;;;;;;2.28;2.17;;;;;;;39.68;18.43;101073.88;4975544;28;20077;-86
2021/06/27 10:40:23;;;;;;;2.05;2.05;;;;;;;40.07;17.50;101071.69;4962164;28;20050;-86
2021/06/27 10:43:01;;;;;;;2.00;2.00;;;;;;;40.62;17.02;101064.47;4979007;28;20042;-84
2021/06/27 10:45:53;;;;;;;2.00;1.98;;;;;;;41.29;16.51;101063.91;4979555;28;20042;-84
2021/06/27 10:48:40;;;;;;;2.00;1.90;;;;;;;42.01;15.44;101064.25;4982648;28;20109;-84
2021/06/27 10:51:13;;;;;;;1.77;1.77;;;;;;;42.56;15.06;101063.09;4976946;28;20051;-84
2021/06/27 10:54:14;;;;;;;2.58;2.47;;;;;;;41.99;14.80;101058.97;4957313;28;20061;-85
2021/06/27 10:56:58;;;;;;;1.48;1.48;;;;;;;41.54;15.50;101058.72;4958709;28;20180;-89
2021/06/27 10:59:41;;;;;;;1.85;1.75;;;;;;;41.61;14.83;101050.47;4987010;28;20053;-85
2021/06/27 11:02:31;;;;;;;1.90;1.80;;;;;;;41.76;14.85;101048.38;4991352;28;20061;-89
2021/06/27 11:05:27;;;;;;;1.60;1.60;;;;;;;41.55;14.45;101059.53;4979526;28;20077;-86
2021/06/27 11:07:59;;;;;;;1.92;1.92;;;;;;;42.17;14.90;101056.63;4986106;28;20114;-88
2021/06/27 11:10:27;;;;;;;2.25;1.67;;;;;;;43.06;14.08;101054.22;4970721;28;20046;-87
2021/06/27 11:12:57;;;;;;;1.85;1.75;;;;;;;43.67;14.16;101058.31;4973511;28;20054;-87
2021/06/27 11:15:34;;;;;;;1.90;1.80;;;;;;;43.98;13.48;101053.84;4988133;28;20050;-86
2021/06/27 11:18:04;;;;;;;1.70;1.60;;;;;;;43.60;13.86;101043.75;4974419;28;20047;-86
2021/06/27 11:20:49;;;;;;;1.85;1.80;;;;;;;43.27;14.03;101050.31;4993004;28;20098;-86
2021/06/27 11:23:19;;;;;;;2.03;1.92;;;;;;;43.53;13.90;101048.47;4991408;28;20088;-86
2021/06/27 11:25:48;;;;;;;2.00;2.00;;;;;;;43.19;14.50;101040.38;4974893;28;20138;-87
2021/06/27 11:28:35;;;;;;;2.40;2.33;;;;;;;42.28;15.00;101048.56;4970005;28;20045;-86
2021/06/27 11:31:29;;;;;;;2.20;2.00;;;;;;;39.54;17.41;101032.63;4958144;28;20207;-87
2021/06/27 11:34:25;;;;;;;3.53;3.33;;;;;;;37.16;19.63;101045.03;4973853;28;20043;-87
2021/06/27 11:36:59;;;;;;;2.53;2.42;;;;;;;35.69;21.06;101036.16;4986376;28;20057;-86
2021/06/27 11:39:50;;;;;;;2.80;2.47;;;;;;;33.97;23.02;101041.53;4956251;28;20054;-85
2021/06/27 11:42:23;;;;;;;2.53;2.42;;;;;;;34.75;22.44;101033.53;4970847;28;20046;-86
2021/06/27 11:45:05;;;;;;;2.58;2.47;;;;;;;36.84;19.97;101035.97;4985342;28;20050;-84
2021/06/27 11:47:38;;;;;;;2.10;2.10;;;;;;;38.35;18.43;101028.22;4953969;28;20047;-87
2021/06/27 11:50:16;;;;;;;2.03;2.03;;;;;;;39.63;16.88;101035.25;4951845;28;20787;-84